Wetterstation Vordersexau
Wetterdaten: Woche 10.09.18 - 16.09.18 (KW37)
Datum Zeit Temp. A. Feuchte A. Luftdruck Regen Wind Richtung Taupunkt Windchill Windben
10.09.2018 00:00 14,6 C 70 % 1019,5 hPa 0,0 l/m 0,0 km/h O-NO 9,2 C 14,6 C 0,0 km/h
10.09.2018 01:00 14,1 C 72 % 1019,3 hPa 0,0 l/m 0,0 km/h O-NO 9,1 C 14,1 C 0,0 km/h
10.09.2018 02:00 13,2 C 74 % 1019,4 hPa 0,0 l/m 0,0 km/h O-NO 8,7 C 13,2 C 0,0 km/h
10.09.2018 03:00 12,1 C 78 % 1019,7 hPa 0,0 l/m 0,0 km/h O-NO 8,4 C 12,1 C 0,0 km/h
10.09.2018 04:00 11,9 C 80 % 1019,7 hPa 0,0 l/m 0,0 km/h O-NO 8,6 C 11,9 C 0,0 km/h
10.09.2018 05:00 11,6 C 80 % 1019,6 hPa 0,0 l/m 0,0 km/h O-NO 8,3 C 11,6 C 0,0 km/h
10.09.2018 06:00 11,5 C 81 % 1019,9 hPa 0,0 l/m 0,0 km/h O-NO 8,4 C 11,5 C 0,0 km/h
10.09.2018 07:00 11,8 C 82 % 1020,4 hPa 0,0 l/m 0,0 km/h O-NO 8,8 C 11,8 C 0,0 km/h
10.09.2018 08:00 16,8 C 74 % 1020,7 hPa 0,0 l/m 0,0 km/h O 12,1 C 16,8 C 0,0 km/h
10.09.2018 09:00 22,4 C 61 % 1021,0 hPa 0,0 l/m 0,0 km/h O 14,5 C 22,4 C 0,0 km/h
10.09.2018 10:00 21,9 C 59 % 1021,0 hPa 0,0 l/m 0,0 km/h W 13,5 C 21,9 C 0,0 km/h
10.09.2018 11:00 23,5 C 54 % 1020,7 hPa 0,0 l/m 0,0 km/h W-SW 13,6 C 23,5 C 0,0 km/h
10.09.2018 12:00 25,0 C 45 % 1020,8 hPa 0,0 l/m 0,0 km/h SW 12,2 C 25,0 C 0,0 km/h
10.09.2018 13:00 26,6 C 41 % 1020,6 hPa 0,0 l/m 0,0 km/h SO 12,2 C 26,6 C 0,0 km/h
10.09.2018 14:00 27,9 C 39 % 1020,2 hPa 0,0 l/m 0,0 km/h S-SO 12,6 C 27,9 C 0,0 km/h
10.09.2018 15:00 28,7 C 35 % 1019,7 hPa 0,0 l/m 0,0 km/h SW 11,7 C 28,7 C 0,0 km/h
10.09.2018 16:00 28,8 C 33 % 1019,5 hPa 0,0 l/m 0,0 km/h S 10,9 C 28,8 C 0,0 km/h
10.09.2018 17:00 30,8 C 31 % 1019,1 hPa 0,0 l/m 0,0 km/h O-SO 11,7 C 30,8 C 0,0 km/h
10.09.2018 18:00 26,9 C 42 % 1019,5 hPa 0,0 l/m 0,0 km/h O-SO 12,9 C 26,9 C 0,0 km/h
10.09.2018 19:00 23,2 C 50 % 1019,7 hPa 0,0 l/m 0,0 km/h SO 12,2 C 23,2 C 0,0 km/h
10.09.2018 20:00 19,9 C 61 % 1020,5 hPa 0,0 l/m 0,0 km/h O-SO 12,2 C 19,9 C 0,0 km/h
10.09.2018 21:00 18,8 C 63 % 1021,0 hPa 0,0 l/m 0,0 km/h O-SO 11,6 C 18,8 C 0,0 km/h
10.09.2018 22:00 17,6 C 67 % 1021,4 hPa 0,0 l/m 0,0 km/h SO 11,4 C 17,6 C 0,0 km/h
10.09.2018 23:00 16,7 C 69 % 1021,5 hPa 0,0 l/m 0,0 km/h O-NO 11,0 C 16,7 C 0,0 km/h
11.09.2018 00:00 16,1 C 71 % 1021,8 hPa 0,0 l/m 0,0 km/h O-NO 10,8 C 16,1 C 0,0 km/h
11.09.2018 01:00 15,8 C 72 % 1021,9 hPa 0,0 l/m 0,0 km/h SO 10,8 C 15,8 C 0,0 km/h
11.09.2018 02:00 15,4 C 73 % 1021,6 hPa 0,0 l/m 0,0 km/h O-NO 10,6 C 15,4 C 0,0 km/h
11.09.2018 03:00 14,9 C 75 % 1021,7 hPa 0,0 l/m 0,0 km/h O-NO 10,5 C 14,9 C 0,0 km/h
11.09.2018 04:00 14,4 C 77 % 1022,1 hPa 0,0 l/m 0,0 km/h SO 10,4 C 14,4 C 0,0 km/h
11.09.2018 05:00 13,9 C 79 % 1022,1 hPa 0,0 l/m 0,0 km/h O-NO 10,3 C 13,9 C 0,0 km/h
11.09.2018 06:00 13,6 C 81 % 1022,7 hPa 0,0 l/m 0,0 km/h SO 10,4 C 13,6 C 0,0 km/h
11.09.2018 07:00 13,7 C 81 % 1023,1 hPa 0,0 l/m 0,0 km/h SO 10,5 C 13,7 C 0,0 km/h
11.09.2018 08:00 19,3 C 75 % 1023,1 hPa 0,0 l/m 0,0 km/h SO 14,8 C 19,3 C 0,0 km/h
11.09.2018 09:00 23,9 C 60 % 1023,4 hPa 0,0 l/m 0,0 km/h N 15,7 C 23,9 C 0,0 km/h
11.09.2018 10:00 22,1 C 60 % 1023,1 hPa 0,0 l/m 0,0 km/h SW 14,0 C 22,1 C 0,0 km/h
11.09.2018 11:00 23,4 C 57 % 1023,0 hPa 0,0 l/m 0,0 km/h S-SW 14,4 C 23,4 C 0,0 km/h
11.09.2018 12:00 25,1 C 51 % 1022,5 hPa 0,0 l/m 0,0 km/h S-SW 14,2 C 25,1 C 0,0 km/h
11.09.2018 13:00 26,6 C 47 % 1022,1 hPa 0,0 l/m 0,0 km/h SO 14,3 C 26,6 C 0,0 km/h
11.09.2018 14:00 28,4 C 42 % 1021,6 hPa 0,0 l/m 0,0 km/h W 14,2 C 28,4 C 0,0 km/h
11.09.2018 15:00 28,7 C 40 % 1021,0 hPa 0,0 l/m 0,0 km/h S 13,7 C 28,7 C 0,0 km/h
11.09.2018 16:00 29,4 C 39 % 1020,5 hPa 0,0 l/m 0,0 km/h S 14,0 C 29,4 C 0,0 km/h
11.09.2018 17:00 33,8 C 31 % 1020,0 hPa 0,0 l/m 0,0 km/h S 14,3 C 33,8 C 0,0 km/h
11.09.2018 18:00 29,2 C 38 % 1019,8 hPa 0,0 l/m 0,0 km/h O-SO 13,4 C 29,2 C 0,0 km/h
11.09.2018 19:00 24,4 C 50 % 1019,8 hPa 0,0 l/m 0,0 km/h O-NO 13,3 C 24,4 C 0,0 km/h
11.09.2018 20:00 21,3 C 59 % 1020,3 hPa 0,0 l/m 0,0 km/h O-NO 13,0 C 21,3 C 0,0 km/h
11.09.2018 21:00 19,8 C 64 % 1020,7 hPa 0,0 l/m 0,0 km/h O-NO 12,8 C 19,8 C 0,0 km/h
11.09.2018 22:00 18,6 C 66 % 1020,9 hPa 0,0 l/m 0,0 km/h O-NO 12,1 C 18,6 C 0,0 km/h
11.09.2018 23:00 17,7 C 69 % 1021,1 hPa 0,0 l/m 0,0 km/h O 11,9 C 17,7 C 0,0 km/h
12.09.2018 00:00 16,7 C 71 % 1021,0 hPa 0,0 l/m 0,0 km/h O 11,4 C 16,7 C 0,0 km/h
12.09.2018 01:00 16,3 C 72 % 1020,6 hPa 0,0 l/m 0,0 km/h O-SO 11,2 C 16,3 C 0,0 km/h
12.09.2018 02:00 15,6 C 73 % 1020,3 hPa 0,0 l/m 2,6 km/h O-SO 10,8 C 15,6 C 1,4 km/h
12.09.2018 03:00 15,1 C 74 % 1019,7 hPa 0,0 l/m 0,0 km/h O-SO 10,5 C 15,1 C 0,0 km/h
12.09.2018 04:00 14,6 C 75 % 1019,8 hPa 0,0 l/m 0,0 km/h O-SO 10,2 C 14,6 C 0,0 km/h
12.09.2018 05:00 13,3 C 78 % 1019,6 hPa 0,0 l/m 0,0 km/h O-SO 9,5 C 13,3 C 0,0 km/h
12.09.2018 06:00 12,7 C 81 % 1019,4 hPa 0,0 l/m 0,0 km/h SO 9,5 C 12,7 C 0,0 km/h
12.09.2018 07:00 13,4 C 81 % 1019,7 hPa 0,0 l/m 0,0 km/h O-SO 10,2 C 13,4 C 0,0 km/h
12.09.2018 08:00 18,6 C 72 % 1019,6 hPa 0,0 l/m 0,0 km/h O-SO 13,4 C 18,6 C 0,0 km/h
12.09.2018 09:00 24,4 C 56 % 1019,7 hPa 0,0 l/m 0,0 km/h O-SO 15,0 C 24,4 C 0,0 km/h
12.09.2018 10:00 23,4 C 59 % 1020,1 hPa 0,0 l/m 0,0 km/h S-SO 14,9 C 23,4 C 0,0 km/h
12.09.2018 11:00 26,2 C 52 % 1019,5 hPa 0,0 l/m 0,0 km/h S-SW 15,6 C 26,2 C 0,0 km/h
12.09.2018 12:00 28,2 C 47 % 1018,8 hPa 0,0 l/m 0,0 km/h W-SW 15,8 C 28,2 C 0,0 km/h
12.09.2018 13:00 29,9 C 38 % 1018,3 hPa 0,0 l/m 0,0 km/h SO 14,0 C 29,9 C 0,0 km/h
12.09.2018 14:00 30,6 C 38 % 1017,3 hPa 0,0 l/m 0,0 km/h SW 14,6 C 30,6 C 0,0 km/h
12.09.2018 15:00 31,2 C 36 % 1016,5 hPa 0,0 l/m 13,0 km/h W-SW 14,3 C 30,9 C 7,2 km/h
12.09.2018 16:00 31,3 C 35 % 1015,8 hPa 0,0 l/m 20,7 km/h S 14,0 C 30,8 C 11,5 km/h
12.09.2018 17:00 35,2 C 30 % 1015,2 hPa 0,0 l/m 0,0 km/h O-NO 15,0 C 35,2 C 0,0 km/h
12.09.2018 18:00 29,2 C 43 % 1014,8 hPa 0,0 l/m 0,0 km/h O-SO 15,3 C 29,2 C 0,0 km/h
12.09.2018 19:00 24,5 C 56 % 1015,4 hPa 0,5 l/m 0,0 km/h NO 15,1 C 24,5 C 0,0 km/h
12.09.2018 20:00 19,9 C 78 % 1015,5 hPa 2,6 l/m 0,0 km/h O-SO 15,9 C 19,9 C 0,0 km/h
12.09.2018 21:00 19,8 C 79 % 1015,6 hPa 0,0 l/m 0,0 km/h O-SO 16,0 C 19,8 C 0,0 km/h
12.09.2018 22:00 19,3 C 80 % 1015,9 hPa 0,0 l/m 0,0 km/h SO 15,8 C 19,3 C 0,0 km/h
12.09.2018 23:00 18,8 C 82 % 1016,0 hPa 0,0 l/m 0,0 km/h O-NO 15,7 C 18,8 C 0,0 km/h
13.09.2018 00:00 18,3 C 82 % 1016,2 hPa 0,0 l/m 0,0 km/h O-NO 15,2 C 18,3 C 0,0 km/h
13.09.2018 01:00 17,6 C 82 % 1016,1 hPa 0,0 l/m 0,0 km/h O-SO 14,5 C 17,6 C 0,0 km/h
13.09.2018 02:00 17,1 C 82 % 1016,0 hPa 0,0 l/m 0,0 km/h O-SO 14,0 C 17,1 C 0,0 km/h
13.09.2018 03:00 16,9 C 82 % 1015,6 hPa 0,0 l/m 0,0 km/h O 13,8 C 16,9 C 0,0 km/h
13.09.2018 04:00 16,9 C 82 % 1015,5 hPa 0,0 l/m 0,0 km/h O-SO 13,8 C 16,9 C 0,0 km/h
13.09.2018 05:00 17,1 C 82 % 1015,1 hPa 0,0 l/m 0,0 km/h O-SO 14,0 C 17,1 C 0,0 km/h
13.09.2018 06:00 16,9 C 83 % 1015,5 hPa 0,0 l/m 0,0 km/h O-SO 14,0 C 16,9 C 0,0 km/h
13.09.2018 07:00 16,7 C 82 % 1015,5 hPa 0,0 l/m 0,0 km/h O-SO 13,6 C 16,7 C 0,0 km/h
13.09.2018 08:00 19,6 C 82 % 1015,5 hPa 0,0 l/m 0,0 km/h NW 16,4 C 19,6 C 0,0 km/h
13.09.2018 09:00 22,3 C 76 % 1015,7 hPa 0,0 l/m 0,0 km/h W-NW 17,9 C 22,3 C 0,0 km/h
13.09.2018 10:00 21,9 C 70 % 1015,8 hPa 0,0 l/m 0,0 km/h W-NW 16,2 C 21,9 C 0,0 km/h
13.09.2018 11:00 22,9 C 68 % 1015,8 hPa 0,0 l/m 0,0 km/h W 16,7 C 22,9 C 0,0 km/h
13.09.2018 12:00 23,6 C 66 % 1015,2 hPa 0,0 l/m 0,0 km/h NW 16,9 C 23,6 C 0,0 km/h
13.09.2018 13:00 23,9 C 68 % 1014,7 hPa 0,0 l/m 0,0 km/h N-NW 17,6 C 23,9 C 0,0 km/h
13.09.2018 14:00 25,9 C 62 % 1013,9 hPa 0,0 l/m 0,0 km/h N-NO 18,0 C 25,9 C 0,0 km/h
13.09.2018 15:00 24,9 C 58 % 1014,4 hPa 0,0 l/m 0,0 km/h NW 16,1 C 24,9 C 0,0 km/h
13.09.2018 16:00 20,7 C 71 % 1015,4 hPa 0,0 l/m 20,7 km/h O-NO 15,2 C 17,0 C 11,5 km/h
13.09.2018 17:00 21,1 C 70 % 1015,5 hPa 0,0 l/m 0,0 km/h N-NW 15,4 C 21,1 C 0,0 km/h
13.09.2018 18:00 19,8 C 73 % 1015,7 hPa 0,0 l/m 0,0 km/h NW 14,8 C 19,8 C 0,0 km/h
13.09.2018 19:00 17,9 C 79 % 1015,8 hPa 1,6 l/m 0,0 km/h O 14,2 C 17,9 C 0,0 km/h
13.09.2018 20:00 17,6 C 82 % 1015,9 hPa 0,5 l/m 0,0 km/h N-NW 14,5 C 17,6 C 0,0 km/h
13.09.2018 21:00 16,7 C 82 % 1016,3 hPa 0,0 l/m 1,9 km/h W 13,6 C 16,7 C 1,1 km/h
13.09.2018 22:00 16,8 C 82 % 1016,4 hPa 0,0 l/m 0,0 km/h W 13,7 C 16,8 C 0,0 km/h
13.09.2018 23:00 16,6 C 81 % 1016,4 hPa 0,0 l/m 0,0 km/h W 13,3 C 16,6 C 0,0 km/h
14.09.2018 00:00 16,3 C 81 % 1016,6 hPa 0,0 l/m 0,0 km/h W 13,0 C 16,3 C 0,0 km/h
14.09.2018 01:00 16,3 C 82 % 1016,6 hPa 0,0 l/m 0,0 km/h W 13,2 C 16,3 C 0,0 km/h
14.09.2018 02:00 16,3 C 81 % 1016,6 hPa 0,0 l/m 0,0 km/h S-SO 13,0 C 16,3 C 0,0 km/h
14.09.2018 03:00 16,3 C 81 % 1016,6 hPa 0,0 l/m 0,0 km/h S-SO 13,0 C 16,3 C 0,0 km/h
14.09.2018 04:00 15,9 C 81 % 1016,3 hPa 0,0 l/m 0,0 km/h SO 12,6 C 15,9 C 0,0 km/h
14.09.2018 05:00 15,9 C 82 % 1016,1 hPa 0,0 l/m 0,0 km/h SO 12,8 C 15,9 C 0,0 km/h
14.09.2018 06:00 16,0 C 81 % 1016,4 hPa 0,0 l/m 0,0 km/h SO 12,7 C 16,0 C 0,0 km/h
14.09.2018 07:00 15,6 C 82 % 1016,7 hPa 0,0 l/m 0,0 km/h SO 12,5 C 15,6 C 0,0 km/h
14.09.2018 08:00 16,9 C 81 % 1016,7 hPa 0,5 l/m 9,1 km/h SO 13,6 C 15,6 C 5,0 km/h
14.09.2018 09:00 17,8 C 83 % 1017,4 hPa 0,0 l/m 0,0 km/h W-SW 14,9 C 17,8 C 0,0 km/h
14.09.2018 10:00 18,2 C 83 % 1017,8 hPa 0,0 l/m 0,0 km/h NW 15,3 C 18,2 C 0,0 km/h
14.09.2018 11:00 18,2 C 82 % 1017,9 hPa 0,0 l/m 0,0 km/h W-NW 15,1 C 18,2 C 0,0 km/h
14.09.2018 12:00 19,1 C 80 % 1017,7 hPa 0,0 l/m 0,0 km/h SO 15,6 C 19,1 C 0,0 km/h
14.09.2018 13:00 20,2 C 76 % 1017,2 hPa 0,0 l/m 0,0 km/h S 15,8 C 20,2 C 0,0 km/h
14.09.2018 14:00 21,4 C 74 % 1016,9 hPa 0,0 l/m 3,2 km/h N 16,6 C 21,4 C 1,8 km/h
14.09.2018 15:00 22,6 C 69 % 1016,4 hPa 0,0 l/m 0,0 km/h N 16,6 C 22,6 C 0,0 km/h
14.09.2018 16:00 22,6 C 66 % 1016,1 hPa 0,0 l/m 11,7 km/h N 15,9 C 21,1 C 6,5 km/h
14.09.2018 17:00 24,1 C 62 % 1016,1 hPa 0,0 l/m 0,0 km/h N-NW 16,4 C 24,1 C 0,0 km/h
14.09.2018 18:00 21,1 C 69 % 1016,4 hPa 0,0 l/m 0,0 km/h N-NW 15,2 C 21,1 C 0,0 km/h
14.09.2018 19:00 19,5 C 74 % 1016,9 hPa 0,0 l/m 0,0 km/h N-NW 14,7 C 19,5 C 0,0 km/h
14.09.2018 20:00 18,3 C 77 % 1017,4 hPa 0,0 l/m 0,0 km/h N-NW 14,2 C 18,3 C 0,0 km/h
14.09.2018 21:00 17,6 C 81 % 1017,8 hPa 0,0 l/m 0,0 km/h O-SO 14,3 C 17,6 C 0,0 km/h
14.09.2018 22:00 17,1 C 82 % 1017,9 hPa 1,0 l/m 0,0 km/h O-SO 14,0 C 17,1 C 0,0 km/h
14.09.2018 23:00 16,4 C 83 % 1018,3 hPa 0,0 l/m 0,0 km/h O-SO 13,5 C 16,4 C 0,0 km/h
15.09.2018 00:00 15,8 C 82 % 1018,9 hPa 0,5 l/m 0,0 km/h O-SO 12,7 C 15,8 C 0,0 km/h
15.09.2018 01:00 15,9 C 81 % 1019,2 hPa 0,0 l/m 0,0 km/h O-SO 12,6 C 15,9 C 0,0 km/h
15.09.2018 02:00 15,4 C 81 % 1019,5 hPa 0,0 l/m 0,0 km/h O-NO 12,2 C 15,4 C 0,0 km/h
15.09.2018 03:00 14,5 C 80 % 1019,7 hPa 0,0 l/m 0,0 km/h O-NO 11,1 C 14,5 C 0,0 km/h
15.09.2018 04:00 14,1 C 80 % 1019,7 hPa 0,0 l/m 0,0 km/h O-NO 10,7 C 14,1 C 0,0 km/h
15.09.2018 05:00 13,7 C 81 % 1020,2 hPa 0,0 l/m 0,0 km/h O-NO 10,5 C 13,7 C 0,0 km/h
15.09.2018 06:00 13,5 C 81 % 1020,7 hPa 0,0 l/m 0,0 km/h O-NO 10,3 C 13,5 C 0,0 km/h
15.09.2018 07:00 12,8 C 81 % 1021,0 hPa 0,0 l/m 0,0 km/h O-NO 9,6 C 12,8 C 0,0 km/h
15.09.2018 08:00 17,9 C 82 % 1021,4 hPa 0,0 l/m 0,0 km/h O 14,8 C 17,9 C 0,0 km/h
15.09.2018 09:00 21,3 C 73 % 1022,1 hPa 0,0 l/m 0,0 km/h S-SW 16,3 C 21,3 C 0,0 km/h
15.09.2018 10:00 19,5 C 66 % 1022,0 hPa 0,0 l/m 0,0 km/h W 13,0 C 19,5 C 0,0 km/h
15.09.2018 11:00 19,7 C 61 % 1021,9 hPa 0,0 l/m 0,0 km/h N 12,0 C 19,7 C 0,0 km/h
15.09.2018 12:00 20,6 C 53 % 1021,4 hPa 0,0 l/m 0,0 km/h N-NW 10,7 C 20,6 C 0,0 km/h
15.09.2018 13:00 21,3 C 51 % 1021,4 hPa 0,0 l/m 17,5 km/h N-NW 10,7 C 18,3 C 9,7 km/h
15.09.2018 14:00 21,8 C 49 % 1021,0 hPa 0,0 l/m 4,5 km/h NW 10,6 C 21,8 C 2,5 km/h
15.09.2018 15:00 22,3 C 47 % 1020,7 hPa 0,0 l/m 14,3 km/h NW 10,4 C 20,2 C 7,9 km/h
15.09.2018 16:00 22,1 C 45 % 1020,5 hPa 0,0 l/m 0,0 km/h N 9,6 C 22,1 C 0,0 km/h
15.09.2018 17:00 25,1 C 40 % 1020,5 hPa 0,0 l/m 5,8 km/h N-NW 10,5 C 25,1 C 3,2 km/h
15.09.2018 18:00 21,4 C 46 % 1020,8 hPa 0,0 l/m 0,0 km/h N 9,3 C 21,4 C 0,0 km/h
15.09.2018 19:00 19,0 C 54 % 1021,2 hPa 0,0 l/m 0,0 km/h N 9,5 C 19,0 C 0,0 km/h
15.09.2018 20:00 15,8 C 64 % 1021,6 hPa 0,0 l/m 0,0 km/h O-SO 9,0 C 15,8 C 0,0 km/h
15.09.2018 21:00 14,6 C 70 % 1021,9 hPa 0,0 l/m 0,0 km/h O 9,2 C 14,6 C 0,0 km/h
15.09.2018 22:00 13,5 C 74 % 1021,8 hPa 0,0 l/m 0,0 km/h O-SO 9,0 C 13,5 C 0,0 km/h
15.09.2018 23:00 12,8 C 76 % 1021,8 hPa 0,0 l/m 0,0 km/h O-SO 8,7 C 12,8 C 0,0 km/h
16.09.2018 00:00 12,4 C 77 % 1021,5 hPa 0,0 l/m 0,0 km/h NO 8,5 C 12,4 C 0,0 km/h
16.09.2018 01:00 11,6 C 78 % 1021,1 hPa 0,0 l/m 0,0 km/h O-NO 7,9 C 11,6 C 0,0 km/h
16.09.2018 02:00 11,8 C 78 % 1020,7 hPa 0,0 l/m 0,0 km/h O-NO 8,1 C 11,8 C 0,0 km/h
16.09.2018 03:00 10,8 C 79 % 1020,5 hPa 0,0 l/m 0,0 km/h O-NO 7,3 C 10,8 C 0,0 km/h
16.09.2018 04:00 9,8 C 81 % 1020,1 hPa 0,0 l/m 0,0 km/h O-NO 6,7 C 9,8 C 0,0 km/h
16.09.2018 05:00 9,0 C 83 % 1019,8 hPa 0,0 l/m 0,0 km/h O-NO 6,3 C 9,0 C 0,0 km/h
16.09.2018 06:00 8,4 C 83 % 1019,8 hPa 0,0 l/m 0,0 km/h O-NO 5,7 C 8,4 C 0,0 km/h
16.09.2018 07:00 8,6 C 84 % 1020,2 hPa 0,0 l/m 0,0 km/h O-NO 6,1 C 8,6 C 0,0 km/h
16.09.2018 08:00 15,4 C 78 % 1020,5 hPa 0,0 l/m 0,0 km/h S-SW 11,6 C 15,4 C 0,0 km/h
16.09.2018 09:00 18,9 C 66 % 1020,6 hPa 0,0 l/m 0,0 km/h W-SW 12,4 C 18,9 C 0,0 km/h
16.09.2018 10:00 17,1 C 67 % 1020,5 hPa 0,0 l/m 0,0 km/h O-SO 10,9 C 17,1 C 0,0 km/h
16.09.2018 11:00 18,9 C 64 % 1019,8 hPa 0,0 l/m 0,0 km/h W 11,9 C 18,9 C 0,0 km/h
16.09.2018 12:00 20,9 C 62 % 1018,9 hPa 0,0 l/m 0,0 km/h N-NW 13,3 C 20,9 C 0,0 km/h
16.09.2018 13:00 22,2 C 58 % 1018,4 hPa 0,0 l/m 1,9 km/h W-SW 13,5 C 22,2 C 1,1 km/h
16.09.2018 14:00 23,3 C 55 % 1018,0 hPa 0,0 l/m 0,0 km/h S-SO 13,7 C 23,3 C 0,0 km/h
16.09.2018 15:00 24,1 C 55 % 1017,5 hPa 0,0 l/m 0,0 km/h SO 14,5 C 24,1 C 0,0 km/h
16.09.2018 16:00 24,9 C 54 % 1016,8 hPa 0,0 l/m 0,0 km/h SO 14,9 C 24,9 C 0,0 km/h
16.09.2018 17:00 27,7 C 47 % 1016,8 hPa 0,0 l/m 0,0 km/h SO 15,3 C 27,7 C 0,0 km/h
16.09.2018 18:00 24,9 C 52 % 1016,9 hPa 0,0 l/m 0,0 km/h O-SO 14,4 C 24,9 C 0,0 km/h
16.09.2018 19:00 21,5 C 64 % 1017,3 hPa 0,0 l/m 0,0 km/h O-SO 14,4 C 21,5 C 0,0 km/h
16.09.2018 20:00 18,9 C 71 % 1017,6 hPa 0,0 l/m 0,0 km/h O 13,5 C 18,9 C 0,0 km/h
16.09.2018 21:00 17,0 C 76 % 1018,3 hPa 0,0 l/m 0,0 km/h O-NO 12,7 C 17,0 C 0,0 km/h
16.09.2018 22:00 15,8 C 79 % 1018,2 hPa 0,0 l/m 0,0 km/h O-NO 12,2 C 15,8 C 0,0 km/h
16.09.2018 23:00 15,4 C 81 % 1018,2 hPa 0,0 l/m 0,0 km/h O-NO 12,2 C 15,4 C 0,0 km/h
Min-Datum _ 16.09.18 12.09.18 13.09.18 - 10.09.18 - 16.09.18 16.09.18 10.09.18
_ Min-Zeit 06:53 17:53 14:53 - 00:53 - 06:53 06:53 00:53
Minimum _ 8,4 C 30 % 1013,9 hPa - 0,0 km/h - 5,7 C 8,4 C 0,0 km/h
Max-Datum _ 12.09.18 16.09.18 11.09.18 12.09.18 12.09.18 - 13.09.18 12.09.18 12.09.18
_ Max-Zeit 17:53 07:53 09:53 20:53 16:53 - 14:53 17:53 16:53
Maximum _ 35,2 C 84 % 1023,4 hPa 2,6 l/m 20,7 km/h
S
- 18,0 C 35,2 C 11,5 km/h
S
Durchschnitt _ 19,4 C 68 % 1018,9 hPa #7,3 l/m 0,8 km/h O-NO 12,7 C 19,3 C 0,4 km/h
www.sexauwetter.de